Time;durP1;ratioP1;P1;durP2;ratioP2;P2;SDS_P1;SDS_P2;PMS_P1;PMS_P2;Temp;Humidity;BMP_temperature;BMP_pressure;BME280_temperature;BME280_humidity;BME280_pressure;Samples;Min_cycle;Max_cycle;Signal;HPM_P1;HPM_P2
2021/04/01 00:00:18;;;;;;;1.35;1.02;;;17.70;55.90;;;;;;5046888;28;20040;-59
2021/04/01 00:02:50;;;;;;;1.80;1.23;;;17.70;55.80;;;;;;5046915;28;20025;-60
2021/04/01 00:05:16;;;;;;;1.60;1.05;;;17.70;56.00;;;;;;5044718;28;20663;-59
2021/04/01 00:07:42;;;;;;;3.75;1.35;;;17.80;55.30;;;;;;5046184;28;20041;-59
2021/04/01 00:10:11;;;;;;;1.63;1.00;;;17.70;55.20;;;;;;5046526;28;20119;-60
2021/04/01 00:12:37;;;;;;;1.65;1.02;;;17.50;55.40;;;;;;5046448;28;20094;-60
2021/04/01 00:15:06;;;;;;;1.73;1.17;;;17.60;55.00;;;;;;5046436;28;20025;-60
2021/04/01 00:17:31;;;;;;;1.27;1.08;;;17.60;55.00;;;;;;5046505;28;20033;-59
2021/04/01 00:19:58;;;;;;;1.70;1.10;;;17.60;54.50;;;;;;5046223;28;20400;-60
2021/04/01 00:22:24;;;;;;;3.40;1.02;;;17.80;54.50;;;;;;5046898;28;20021;-59
2021/04/01 00:24:49;;;;;;;1.55;0.93;;;17.80;53.90;;;;;;5046398;28;20483;-59
2021/04/01 00:27:16;;;;;;;2.92;1.20;;;17.70;56.30;;;;;;5046107;28;20367;-59
2021/04/01 00:29:41;;;;;;;2.50;1.20;;;17.80;56.20;;;;;;5046068;28;20029;-59
2021/04/01 00:32:07;;;;;;;1.73;0.93;;;17.80;55.90;;;;;;5046066;28;20515;-59
2021/04/01 00:34:34;;;;;;;1.75;1.20;;;17.80;56.10;;;;;;5045940;28;20025;-59
2021/04/01 00:37:01;;;;;;;1.95;1.20;;;17.70;56.10;;;;;;5046063;28;20444;-59
2021/04/01 00:39:26;;;;;;;2.38;1.00;;;17.70;55.70;;;;;;5046776;28;20029;-60
2021/04/01 00:41:52;;;;;;;2.53;0.90;;;17.70;55.90;;;;;;5046821;28;20407;-59
2021/04/01 00:44:17;;;;;;;3.13;1.10;;;17.90;55.60;;;;;;5045291;28;20036;-59
2021/04/01 00:46:47;;;;;;;1.20;0.98;;;17.90;55.00;;;;;;5046035;28;20028;-59
2021/04/01 00:49:14;;;;;;;3.90;1.38;;;17.90;54.70;;;;;;5045718;28;20029;-59
2021/04/01 00:51:40;;;;;;;1.80;1.08;;;18.00;54.00;;;;;;5045768;28;20507;-59
2021/04/01 00:54:07;;;;;;;1.35;0.88;;;17.90;54.30;;;;;;5045924;28;20040;-59
2021/04/01 00:56:33;;;;;;;1.38;0.90;;;18.10;52.30;;;;;;5045292;28;20048;-59
2021/04/01 00:59:00;;;;;;;1.27;0.90;;;17.70;51.70;;;;;;5045604;28;20040;-59
2021/04/01 01:01:45;;;;;;;1.77;0.85;;;17.90;51.80;;;;;;5046174;28;20056;-59
2021/04/01 01:04:12;;;;;;;1.20;1.05;;;17.80;51.90;;;;;;5045458;28;20731;-59
2021/04/01 01:06:39;;;;;;;1.73;1.00;;;17.70;52.40;;;;;;5044892;28;20028;-59
2021/04/01 01:09:08;;;;;;;1.80;1.10;;;17.50;51.60;;;;;;5045233;28;20422;-59
2021/04/01 01:11:34;;;;;;;3.03;0.93;;;17.30;51.50;;;;;;5045315;28;20021;-59
2021/04/01 01:14:06;;;;;;;1.55;0.90;;;17.10;52.60;;;;;;5045557;28;20025;-59
2021/04/01 01:16:35;;;;;;;3.05;1.10;;;17.20;52.20;;;;;;5045085;28;20100;-59
2021/04/01 01:19:03;;;;;;;2.92;1.58;;;16.90;52.50;;;;;;5045160;28;20025;-59
2021/04/01 01:21:29;;;;;;;1.75;1.23;;;17.10;52.70;;;;;;5045102;28;20107;-59
2021/04/01 01:23:55;;;;;;;2.85;1.42;;;17.00;52.50;;;;;;5045912;28;20158;-59
2021/04/01 01:26:21;;;;;;;1.80;0.95;;;17.00;52.80;;;;;;5045091;28;20025;-59
2021/04/01 01:28:48;;;;;;;1.40;0.93;;;17.00;52.50;;;;;;5045239;28;20435;-59
2021/04/01 01:31:17;;;;;;;3.17;1.00;;;17.10;52.70;;;;;;5045581;28;20051;-59
2021/04/01 01:33:44;;;;;;;3.50;1.33;;;16.80;53.20;;;;;;5044695;28;20127;-59
2021/04/01 01:36:11;;;;;;;1.98;0.88;;;16.80;53.30;;;;;;5043738;28;20021;-58
2021/04/01 01:38:37;;;;;;;3.85;1.30;;;16.70;53.10;;;;;;5044774;28;20025;-58
2021/04/01 01:41:04;;;;;;;2.47;1.38;;;16.60;53.30;;;;;;5045140;28;20036;-58
2021/04/01 01:43:32;;;;;;;2.00;1.08;;;16.40;53.70;;;;;;5044609;28;20032;-59
2021/04/01 01:45:59;;;;;;;3.38;1.35;;;16.40;53.70;;;;;;5044738;28;20033;-58
2021/04/01 01:48:25;;;;;;;3.65;1.33;;;16.50;53.40;;;;;;5045136;28;20074;-58
2021/04/01 01:50:52;;;;;;;1.98;1.33;;;16.40;53.50;;;;;;5045091;28;20037;-59
2021/04/01 01:53:18;;;;;;;1.17;0.93;;;16.40;54.20;;;;;;5044912;28;20051;-58
2021/04/01 01:55:44;;;;;;;1.33;1.10;;;16.40;53.40;;;;;;5044078;28;20045;-58
2021/04/01 01:58:11;;;;;;;3.08;1.50;;;16.30;54.10;;;;;;5044794;28;20028;-58
2021/04/01 02:00:39;;;;;;;1.83;1.08;;;16.40;53.90;;;;;;5044919;28;20028;-59
2021/04/01 02:03:06;;;;;;;1.80;1.17;;;16.50;54.20;;;;;;5044472;28;20376;-59
2021/04/01 02:05:34;;;;;;;3.25;1.20;;;16.50;54.10;;;;;;5043845;28;20025;-59
2021/04/01 02:08:01;;;;;;;2.65;1.10;;;16.40;54.30;;;;;;5044728;28;20454;-59
2021/04/01 02:10:34;;;;;;;1.58;0.98;;;16.50;54.20;;;;;;5044625;28;20079;-59
2021/04/01 02:13:01;;;;;;;2.08;1.10;;;16.50;55.10;;;;;;5044655;28;20039;-59
2021/04/01 02:15:35;;;;;;;2.05;0.82;;;16.60;54.00;;;;;;5044606;28;20032;-59
2021/04/01 02:18:12;;;;;;;2.42;1.25;;;16.40;54.10;;;;;;5044180;28;20040;-59
2021/04/01 02:20:45;;;;;;;1.70;0.90;;;16.50;54.30;;;;;;5044223;28;20035;-59
2021/04/01 02:23:13;;;;;;;2.35;1.20;;;16.30;54.20;;;;;;5044496;28;20112;-59
2021/04/01 02:25:41;;;;;;;1.85;1.02;;;16.30;54.40;;;;;;5044167;28;20025;-58
2021/04/01 02:28:09;;;;;;;2.83;1.40;;;16.20;54.50;;;;;;5044490;28;20029;-58
2021/04/01 02:30:37;;;;;;;3.58;1.10;;;16.30;54.20;;;;;;5043780;28;20025;-58
2021/04/01 02:33:03;;;;;;;3.45;1.42;;;16.20;54.10;;;;;;5044302;28;20569;-59
2021/04/01 02:35:29;;;;;;;1.85;1.23;;;16.10;54.40;;;;;;5043793;28;20017;-59
2021/04/01 02:37:55;;;;;;;2.08;1.20;;;16.20;54.40;;;;;;5044909;28;20025;-59
2021/04/01 02:40:21;;;;;;;2.17;1.23;;;16.20;54.40;;;;;;5044114;28;20126;-58
2021/04/01 02:42:48;;;;;;;1.95;1.02;;;16.20;54.60;;;;;;5044249;28;20033;-59
2021/04/01 02:45:15;;;;;;;2.70;1.08;;;16.20;54.20;;;;;;5043963;28;20082;-58
2021/04/01 02:47:41;;;;;;;2.60;1.40;;;16.30;53.80;;;;;;5043910;28;20040;-58
2021/04/01 02:50:09;;;;;;;3.88;1.00;;;16.20;53.70;;;;;;5044243;28;20025;-58
2021/04/01 02:52:35;;;;;;;3.28;1.15;;;16.10;54.00;;;;;;5044121;28;20017;-59
2021/04/01 02:55:01;;;;;;;2.08;1.25;;;16.10;54.00;;;;;;5044613;28;20028;-59
2021/04/01 02:57:28;;;;;;;4.28;1.10;;;16.00;54.20;;;;;;5043300;28;20041;-59
2021/04/01 02:59:54;;;;;;;1.17;0.93;;;16.00;53.60;;;;;;5044594;28;20028;-58
2021/04/01 03:02:21;;;;;;;3.13;1.25;;;16.00;53.80;;;;;;5043706;28;20575;-58
2021/04/01 03:04:48;;;;;;;3.92;1.25;;;16.00;53.50;;;;;;5043880;28;20040;-59
2021/04/01 03:07:14;;;;;;;2.90;1.10;;;15.90;53.70;;;;;;5047419;28;20036;-58
2021/04/01 03:09:40;;;;;;;2.47;1.20;;;16.00;53.60;;;;;;5047876;28;20494;-59
2021/04/01 03:12:06;;;;;;;2.53;1.13;;;16.00;53.20;;;;;;5047717;28;20232;-59
2021/04/01 03:14:32;;;;;;;1.98;1.27;;;15.90;53.60;;;;;;5047402;28;20013;-59
2021/04/01 03:16:59;;;;;;;1.70;1.10;;;15.90;53.20;;;;;;5047696;28;20025;-59
2021/04/01 03:19:24;;;;;;;1.63;1.00;;;15.80;53.00;;;;;;5048294;28;20021;-59
2021/04/01 03:21:50;;;;;;;2.03;1.20;;;15.90;53.00;;;;;;5047592;28;20460;-59
2021/04/01 03:24:17;;;;;;;3.88;1.25;;;16.20;52.80;;;;;;5047803;28;20744;-58
2021/04/01 03:26:43;;;;;;;0.90;0.80;;;16.10;52.00;;;;;;5047348;28;20060;-58
2021/04/01 03:29:10;;;;;;;1.50;1.17;;;16.20;52.40;;;;;;5047402;28;20061;-59
2021/04/01 03:31:36;;;;;;;4.07;1.05;;;16.30;52.10;;;;;;5046389;28;20076;-58
2021/04/01 03:34:02;;;;;;;2.38;1.55;;;16.30;52.30;;;;;;5047426;28;20158;-59
2021/04/01 03:36:29;;;;;;;1.83;1.08;;;15.90;52.30;;;;;;5045876;28;20044;-59
2021/04/01 03:38:55;;;;;;;2.40;1.08;;;16.00;52.60;;;;;;5048134;28;20124;-59
2021/04/01 03:41:22;;;;;;;1.98;1.35;;;16.30;52.20;;;;;;5047159;28;20064;-59
2021/04/01 03:43:49;;;;;;;1.60;1.08;;;16.10;52.30;;;;;;5047070;28;20185;-59
2021/04/01 03:46:14;;;;;;;2.47;1.20;;;16.30;52.70;;;;;;5047432;28;20119;-59
2021/04/01 03:48:41;;;;;;;1.58;1.10;;;16.10;52.90;;;;;;5046806;28;20155;-58
2021/04/01 03:51:08;;;;;;;1.27;0.90;;;16.20;52.80;;;;;;5047402;28;20028;-59
2021/04/01 03:53:34;;;;;;;1.40;1.10;;;16.10;52.70;;;;;;5046889;28;20052;-59
2021/04/01 03:56:00;;;;;;;2.95;1.00;;;16.20;53.00;;;;;;5046987;28;20044;-59
2021/04/01 04:08:59;;;;;;;1.88;0.90;;;15.90;53.90;;;;;;5046661;28;20045;-58
2021/04/01 04:11:38;;;;;;;4.95;1.55;;;15.80;53.30;;;;;;5047010;28;20112;-59
2021/04/01 04:16:44;;;;;;;3.15;1.55;;;15.60;53.70;;;;;;5046209;28;20222;-58
2021/04/01 04:19:10;;;;;;;3.20;1.15;;;15.60;54.00;;;;;;5045447;28;20533;-58
2021/04/01 04:21:39;;;;;;;1.77;1.20;;;15.60;54.00;;;;;;5046073;28;20033;-58
2021/04/01 04:24:06;;;;;;;2.35;1.00;;;15.70;53.90;;;;;;5046963;28;20437;-58
2021/04/01 04:26:33;;;;;;;2.75;1.20;;;15.60;54.20;;;;;;5046355;28;20057;-59
2021/04/01 04:28:59;;;;;;;1.65;0.90;;;15.60;54.20;;;;;;5046574;28;20317;-59
2021/04/01 04:31:26;;;;;;;1.95;1.00;;;16.00;53.90;;;;;;5046467;28;20033;-58
2021/04/01 04:33:52;;;;;;;4.72;1.40;;;15.80;54.50;;;;;;5046944;28;20071;-59
2021/04/01 04:36:18;;;;;;;3.22;1.35;;;15.80;54.70;;;;;;5046223;28;20466;-58
2021/04/01 04:38:44;;;;;;;2.65;1.50;;;15.60;55.00;;;;;;5046302;28;20075;-58
2021/04/01 04:41:10;;;;;;;1.92;1.30;;;15.60;55.50;;;;;;5045990;28;20036;-59
2021/04/01 04:43:36;;;;;;;1.60;1.02;;;15.70;55.40;;;;;;5045914;28;20017;-59
2021/04/01 04:46:02;;;;;;;2.50;1.48;;;16.10;55.30;;;;;;5045909;28;20029;-60
2021/04/01 04:48:29;;;;;;;1.67;1.00;;;16.20;55.10;;;;;;5045932;28;20310;-60
2021/04/01 04:50:55;;;;;;;2.22;1.08;;;15.90;55.60;;;;;;5046841;28;20056;-60
2021/04/01 04:53:21;;;;;;;4.28;1.20;;;15.80;56.00;;;;;;5045910;28;20025;-60
2021/04/01 04:55:58;;;;;;;2.47;1.40;;;15.80;56.40;;;;;;5045653;28;20036;-60
2021/04/01 04:58:31;;;;;;;2.60;1.25;;;15.80;56.40;;;;;;5046128;28;20027;-60
2021/04/01 05:09:09;;;;;;;2.08;1.30;;;15.90;57.80;;;;;;5051860;28;20119;-60
2021/04/01 05:11:35;;;;;;;1.65;1.10;;;15.90;58.00;;;;;;5045422;28;20634;-60
2021/04/01 05:14:01;;;;;;;1.67;1.10;;;15.80;59.20;;;;;;5045777;28;20099;-60
2021/04/01 05:16:28;;;;;;;2.08;1.38;;;15.70;59.30;;;;;;5044982;28;20132;-60
2021/04/01 05:18:57;;;;;;;1.27;1.10;;;15.80;59.50;;;;;;5046315;28;20028;-60
2021/04/01 05:21:32;;;;;;;3.38;1.10;;;15.80;60.10;;;;;;5046344;28;20036;-60
2021/04/01 05:24:04;;;;;;;4.78;1.83;;;15.60;60.80;;;;;;5045518;28;20033;-60
2021/04/01 05:29:04;;;;;;;2.28;1.73;;;15.40;61.80;;;;;;5045257;28;20330;-60
2021/04/01 05:31:34;;;;;;;3.78;1.70;;;15.40;62.10;;;;;;5044492;28;20407;-60
2021/04/01 05:34:00;;;;;;;3.38;1.50;;;15.30;62.80;;;;;;5045346;28;20020;-60
2021/04/01 05:36:30;;;;;;;2.75;1.63;;;15.10;63.20;;;;;;5045547;28;20029;-60
2021/04/01 05:38:58;;;;;;;2.45;1.85;;;15.00;63.90;;;;;;5045634;28;20433;-60
2021/04/01 05:41:27;;;;;;;3.28;1.67;;;14.90;63.70;;;;;;5045457;28;20029;-60
2021/04/01 05:44:09;;;;;;;6.07;2.00;;;14.90;63.90;;;;;;5045164;28;20079;-60
2021/04/01 05:46:39;;;;;;;3.58;2.00;;;14.70;64.50;;;;;;5044945;28;20032;-60
2021/04/01 06:00:25;;;;;;;2.85;2.00;;;14.90;65.60;;;;;;5044033;28;20354;-60
2021/04/01 06:06:06;;;;;;;3.80;2.15;;;15.00;65.60;;;;;;5044819;28;20042;-60
2021/04/01 06:08:45;;;;;;;2.80;1.95;;;15.10;65.10;;;;;;5048334;28;20535;-60
2021/04/01 06:11:11;;;;;;;3.83;1.52;;;15.20;65.70;;;;;;5063532;28;20031;-60
2021/04/01 06:14:01;;;;;;;2.95;1.65;;;15.10;65.60;;;;;;5060097;28;20014;-60
2021/04/01 06:16:34;;;;;;;3.95;2.13;;;15.00;65.90;;;;;;5045810;28;20060;-60
2021/04/01 06:19:06;;;;;;;4.80;1.98;;;15.00;67.00;;;;;;5045476;28;20534;-60
2021/04/01 06:21:39;;;;;;;3.58;1.85;;;14.90;67.10;;;;;;5045103;28;20075;-60
2021/04/01 06:24:21;;;;;;;7.28;1.98;;;15.00;67.10;;;;;;5052517;28;20028;-60
2021/04/01 06:26:51;;;;;;;4.32;2.35;;;15.00;66.70;;;;;;5062026;28;20446;-60
2021/04/01 06:29:19;;;;;;;4.13;2.15;;;15.20;67.90;;;;;;5048862;28;20029;-60
2021/04/01 06:31:47;;;;;;;3.35;2.03;;;15.30;66.90;;;;;;5043979;28;20033;-60
2021/04/01 06:34:14;;;;;;;3.33;1.95;;;15.40;68.00;;;;;;5045579;28;20086;-60
2021/04/01 06:36:55;;;;;;;3.13;1.98;;;15.40;67.90;;;;;;5042677;28;20036;-60
2021/04/01 06:39:22;;;;;;;7.32;2.80;;;15.30;68.50;;;;;;5054945;28;20046;-60
2021/04/01 06:41:51;;;;;;;5.85;2.42;;;15.30;68.30;;;;;;5066649;28;20039;-60
2021/04/01 06:44:30;;;;;;;4.45;2.35;;;15.20;68.00;;;;;;5067719;28;20120;-60
2021/04/01 06:47:11;;;;;;;4.13;2.30;;;15.30;67.10;;;;;;5066633;28;20029;-60
2021/04/01 06:49:54;;;;;;;4.18;2.28;;;15.20;68.60;;;;;;5058166;28;20067;-60
2021/04/01 06:52:25;;;;;;;4.95;2.20;;;15.20;68.70;;;;;;5065691;28;20040;-60
2021/04/01 06:55:08;;;;;;;2.72;2.10;;;15.30;68.40;;;;;;5049915;28;20410;-60
2021/04/01 07:00:31;;;;;;;3.95;1.77;;;15.70;68.20;;;;;;5047782;28;20383;-60
2021/04/01 07:03:10;;;;;;;3.72;2.53;;;15.70;68.80;;;;;;5047512;28;20029;-60
2021/04/01 07:05:48;;;;;;;2.45;1.50;;;15.80;69.10;;;;;;5047026;28;20021;-60
2021/04/01 07:08:16;;;;;;;2.85;1.98;;;15.80;70.20;;;;;;5047853;28;20388;-60
2021/04/01 07:10:52;;;;;;;3.13;1.55;;;15.80;67.90;;;;;;5046142;28;20032;-60
2021/04/01 07:13:25;;;;;;;2.70;1.75;;;15.90;67.60;;;;;;5048526;28;20459;-60
2021/04/01 07:15:55;;;;;;;3.78;2.17;;;15.60;67.70;;;;;;5048234;28;20017;-60
2021/04/01 07:34:38;;;;;;;1.77;1.33;;;16.60;71.50;;;;;;5047728;28;20029;-60
2021/04/01 07:48:24;;;;;;;1.38;1.08;;;16.90;71.20;;;;;;5065411;28;20040;-60
2021/04/01 07:50:51;;;;;;;1.80;1.00;;;16.90;68.80;;;;;;5066982;28;20032;-60
2021/04/01 07:53:25;;;;;;;1.83;0.93;;;17.00;68.50;;;;;;5065693;28;20534;-60
2021/04/01 08:04:03;;;;;;;2.22;1.33;;;17.10;67.40;;;;;;5066589;28;20470;-60
2021/04/01 08:06:31;;;;;;;2.95;1.20;;;17.20;67.20;;;;;;5066004;28;20039;-60
2021/04/01 08:09:10;;;;;;;1.83;1.05;;;17.50;68.40;;;;;;5066476;28;20044;-60
2021/04/01 08:11:49;;;;;;;1.77;1.10;;;17.60;66.70;;;;;;5067040;28;20544;-60
2021/04/01 08:14:23;;;;;;;1.30;1.20;;;17.60;64.80;;;;;;5066706;28;20021;-60
2021/04/01 08:17:01;;;;;;;;;;;17.60;64.20;;;;;;5066855;28;20020;-60
2021/04/01 08:19:29;;;;;;;5.38;1.70;;;17.70;63.30;;;;;;5065144;28;20310;-60
2021/04/01 08:21:57;;;;;;;1.30;1.10;;;17.60;63.20;;;;;;5066286;28;20403;-60
2021/04/01 08:24:40;;;;;;;2.55;1.00;;;17.80;64.10;;;;;;5064787;28;20313;-60
2021/04/01 08:35:34;;;;;;;1.40;1.05;;;18.00;63.20;;;;;;5066684;28;20466;-60
2021/04/01 08:38:12;;;;;;;0.95;0.90;;;17.90;63.40;;;;;;5066406;28;20024;-60
2021/04/01 08:40:42;;;;;;;2.20;1.02;;;17.80;63.30;;;;;;5065951;28;20450;-60
2021/04/01 08:43:11;;;;;;;1.58;1.15;;;18.00;65.10;;;;;;5066156;28;20028;-60
2021/04/01 08:45:50;;;;;;;1.48;1.30;;;18.30;66.10;;;;;;5065724;28;20430;-60
2021/04/01 08:48:56;;;;;;;1.25;0.95;;;18.10;62.80;;;;;;5065862;28;20078;-60
2021/04/01 08:51:25;;;;;;;2.92;1.50;;;18.20;63.20;;;;;;5065832;28;20105;-60
2021/04/01 08:54:14;;;;;;;2.13;0.80;;;18.10;62.50;;;;;;5065704;28;20505;-60
2021/04/01 08:56:47;;;;;;;1.83;1.10;;;18.20;62.30;;;;;;5065064;28;20059;-60
2021/04/01 08:59:38;;;;;;;1.83;1.30;;;18.30;62.60;;;;;;5064379;28;20052;-60
2021/04/01 09:02:11;;;;;;;2.45;1.00;;;18.40;62.90;;;;;;5066199;28;20021;-60
2021/04/01 09:04:50;;;;;;;2.00;1.10;;;18.50;63.30;;;;;;5065210;28;20034;-60
2021/04/01 09:07:25;;;;;;;2.33;1.40;;;18.50;63.40;;;;;;5065656;28;20032;-60
2021/04/01 09:09:52;;;;;;;1.77;1.20;;;18.50;62.40;;;;;;5065967;28;20549;-60
2021/04/01 09:12:37;;;;;;;1.13;0.95;;;18.60;63.40;;;;;;5065410;28;20028;-60
2021/04/01 09:15:04;;;;;;;;;;;18.80;62.80;;;;;;5066594;28;20173;-59
2021/04/01 09:17:35;;;;;;;2.88;1.15;;;18.90;64.20;;;;;;5065170;28;19904;-60
2021/04/01 09:20:20;;;;;;;2.40;1.35;;;19.00;62.60;;;;;;5066136;28;20020;-59
2021/04/01 09:22:54;;;;;;;1.38;1.17;;;19.00;63.10;;;;;;5065566;28;20482;-59
2021/04/01 09:25:34;;;;;;;1.48;0.85;;;19.10;63.10;;;;;;5063575;28;20016;-59
2021/04/01 09:28:03;;;;;;;1.88;1.05;;;19.10;62.50;;;;;;5065255;28;20024;-59
2021/04/01 09:30:30;;;;;;;1.58;1.10;;;19.30;64.00;;;;;;5065300;28;20028;-59
2021/04/01 09:33:05;;;;;;;1.20;1.00;;;19.20;62.00;;;;;;5065243;28;20020;-59
2021/04/01 09:35:34;;;;;;;4.50;1.42;;;19.20;62.30;;;;;;5065338;28;20074;-60
2021/04/01 09:38:10;;;;;;;1.95;1.40;;;19.20;62.40;;;;;;5065115;28;20194;-59
2021/04/01 09:40:42;;;;;;;3.10;1.63;;;19.10;60.30;;;;;;5064129;28;20498;-60
2021/04/01 09:43:12;;;;;;;2.58;1.73;;;19.10;60.80;;;;;;5054998;28;20098;-59
2021/04/01 09:45:39;;;;;;;3.05;1.55;;;19.10;60.90;;;;;;5058703;28;20386;-59
2021/04/01 09:48:06;;;;;;;2.67;1.45;;;19.10;60.90;;;;;;5054738;28;20064;-59
2021/04/01 09:50:37;;;;;;;2.60;1.50;;;19.30;61.20;;;;;;5055750;28;20043;-59
2021/04/01 09:53:11;;;;;;;3.40;1.52;;;19.50;63.10;;;;;;5052569;28;20020;-59
2021/04/01 09:55:40;;;;;;;1.58;1.13;;;19.60;61.60;;;;;;5044456;28;20025;-59
2021/04/01 09:58:24;;;;;;;3.05;1.48;;;19.70;60.90;;;;;;5050752;28;20107;-59
2021/04/01 10:03:54;;;;;;;2.63;1.23;;;19.90;62.80;;;;;;5052206;28;20044;-59
2021/04/01 10:06:35;;;;;;;1.90;1.42;;;19.80;59.70;;;;;;5046738;28;20115;-59
2021/04/01 10:09:09;;;;;;;4.18;1.77;;;19.70;59.90;;;;;;5048823;28;20558;-59
2021/04/01 10:11:41;;;;;;;2.20;1.38;;;19.70;59.10;;;;;;5065179;28;20034;-59
2021/04/01 10:14:11;;;;;;;3.03;1.63;;;19.80;59.20;;;;;;5053138;28;20448;-59
2021/04/01 10:16:49;;;;;;;2.40;1.50;;;19.80;58.80;;;;;;5047665;28;20024;-61
2021/04/01 10:19:15;;;;;;;2.13;1.40;;;20.00;61.00;;;;;;5043157;28;20078;-60
2021/04/01 10:21:45;;;;;;;1.30;1.13;;;20.30;60.20;;;;;;5044008;28;20029;-60
2021/04/01 10:24:31;;;;;;;2.15;1.38;;;20.40;59.70;;;;;;5044193;28;20036;-60
2021/04/01 10:32:12;;;;;;;2.78;1.63;;;20.80;59.40;;;;;;5058764;28;20283;-60
2021/04/01 10:34:54;;;;;;;2.67;2.08;;;20.80;58.20;;;;;;5052339;28;20028;-61
2021/04/01 10:37:22;;;;;;;2.45;1.50;;;20.70;62.80;;;;;;5063462;28;20044;-60
2021/04/01 10:39:49;;;;;;;2.03;1.33;;;20.90;57.70;;;;;;5045979;28;20017;-60
2021/04/01 10:42:24;;;;;;;5.20;1.65;;;20.70;58.90;;;;;;5043845;28;20025;-60
2021/04/01 10:45:00;;;;;;;3.15;1.70;;;21.00;59.10;;;;;;5043535;28;20032;-60
2021/04/01 10:47:40;;;;;;;2.22;1.38;;;20.70;57.50;;;;;;5043227;28;20411;-60
2021/04/01 10:50:07;;;;;;;1.23;0.90;;;21.00;57.50;;;;;;5050883;28;20021;-60
2021/04/01 10:52:33;;;;;;;1.70;1.52;;;21.10;58.20;;;;;;5053135;28;20039;-60
2021/04/01 10:54:59;;;;;;;2.03;1.50;;;21.00;57.60;;;;;;5047776;28;20025;-60
2021/04/01 10:57:32;;;;;;;1.20;1.10;;;20.80;57.90;;;;;;5043105;28;20040;-60
2021/04/01 11:00:06;;;;;;;2.17;1.35;;;20.90;57.50;;;;;;5043809;28;20037;-59
2021/04/01 11:02:38;;;;;;;1.88;1.10;;;21.10;57.50;;;;;;5044264;28;20021;-60
2021/04/01 11:05:09;;;;;;;1.00;0.90;;;21.20;58.50;;;;;;5044249;28;20029;-60
2021/04/01 11:07:47;;;;;;;1.13;1.02;;;21.50;59.30;;;;;;5044080;28;20514;-60
2021/04/01 11:10:26;;;;;;;2.22;1.17;;;21.80;58.20;;;;;;5043040;28;20060;-60
2021/04/01 11:12:58;;;;;;;1.73;1.10;;;21.60;55.90;;;;;;5044223;28;20032;-60
2021/04/01 11:15:26;;;;;;;2.10;1.27;;;21.70;56.90;;;;;;5043866;28;20025;-60
2021/04/01 11:18:09;;;;;;;1.45;1.27;;;21.80;55.90;;;;;;5043072;28;20031;-60
2021/04/01 11:20:38;;;;;;;1.48;1.10;;;21.90;58.30;;;;;;5044311;28;20033;-60
2021/04/01 11:23:25;;;;;;;1.50;0.95;;;22.00;57.00;;;;;;5044463;28;20556;-60
2021/04/01 11:25:53;;;;;;;1.10;1.00;;;21.90;57.60;;;;;;5058854;28;20028;-60
2021/04/01 11:28:31;;;;;;;1.58;0.80;;;22.20;58.00;;;;;;5066897;28;20039;-60
2021/04/01 11:30:58;;;;;;;1.23;0.95;;;22.30;58.20;;;;;;5067391;28;20457;-60
2021/04/01 11:33:25;;;;;;;1.00;0.95;;;22.50;57.50;;;;;;5067428;28;20104;-60
2021/04/01 11:36:10;;;;;;;2.08;1.05;;;22.80;58.40;;;;;;5067799;28;20017;-60
2021/04/01 11:38:48;;;;;;;1.38;1.10;;;22.70;56.20;;;;;;5067035;28;20012;-62
2021/04/01 11:41:17;;;;;;;1.48;1.08;;;22.80;57.00;;;;;;5051730;28;20037;-63
2021/04/01 11:43:42;;;;;;;0.85;0.85;;;22.90;55.20;;;;;;5063588;28;20481;-63
2021/04/01 11:46:25;;;;;;;1.80;1.35;;;22.90;57.00;;;;;;5064915;28;20021;-63
2021/04/01 11:48:52;;;;;;;1.58;1.08;;;22.80;55.50;;;;;;5055463;28;20521;-63
2021/04/01 11:51:27;;;;;;;3.28;1.45;;;23.10;55.70;;;;;;5050327;28;20486;-64
2021/04/01 11:53:53;;;;;;;1.70;1.30;;;22.90;55.00;;;;;;5065875;28;20522;-62
2021/04/01 11:56:19;;;;;;;1.17;0.95;;;23.10;55.10;;;;;;5059426;28;20044;-62
2021/04/01 11:58:45;;;;;;;1.23;1.00;;;23.30;55.70;;;;;;5047928;28;20024;-62
2021/04/01 12:01:36;;;;;;;1.10;0.60;;;23.50;54.60;;;;;;5046849;28;20033;-62
2021/04/01 12:04:05;;;;;;;3.83;1.55;;;23.90;58.10;;;;;;5046143;28;20098;-62
2021/04/01 12:06:31;;;;;;;3.10;1.42;;;23.40;54.50;;;;;;5045543;28;20415;-62
2021/04/01 12:08:58;;;;;;;1.70;1.23;;;23.50;54.50;;;;;;5045973;28;20055;-63
2021/04/01 12:11:27;;;;;;;1.00;0.90;;;23.90;56.10;;;;;;5045991;28;20035;-63
2021/04/01 12:14:08;;;;;;;1.27;1.17;;;24.00;54.90;;;;;;5050568;28;20447;-63
2021/04/01 12:16:34;;;;;;;0.82;0.82;;;24.30;53.70;;;;;;5060420;28;20443;-63
2021/04/01 12:19:01;;;;;;;1.27;1.17;;;24.50;53.50;;;;;;5062762;28;20108;-63
2021/04/01 12:21:28;;;;;;;1.13;0.82;;;24.40;53.10;;;;;;5052519;28;20603;-63
2021/04/01 12:23:59;;;;;;;1.38;0.90;;;24.70;54.10;;;;;;5066066;28;20020;-63
2021/04/01 12:26:29;;;;;;;2.00;1.10;;;24.60;53.30;;;;;;5055007;28;20066;-63
2021/04/01 12:29:00;;;;;;;1.77;1.10;;;24.80;52.70;;;;;;5046144;28;20021;-63
2021/04/01 12:31:38;;;;;;;2.00;1.23;;;24.80;52.50;;;;;;5045588;28;20035;-63
2021/04/01 12:34:06;;;;;;;4.00;1.20;;;24.70;52.30;;;;;;5046508;28;20025;-62
2021/04/01 12:36:35;;;;;;;3.28;1.13;;;24.80;51.50;;;;;;5045323;28;20028;-63
2021/04/01 12:39:07;;;;;;;1.60;1.10;;;24.70;52.10;;;;;;5044624;28;20026;-63
2021/04/01 12:41:36;;;;;;;2.83;1.42;;;25.00;52.50;;;;;;5053590;28;20032;-62
2021/04/01 12:44:03;;;;;;;1.70;1.08;;;25.00;51.30;;;;;;5066122;28;20027;-63
2021/04/01 12:46:55;;;;;;;1.58;1.20;;;25.10;50.70;;;;;;5053011;28;20048;-63
2021/04/01 12:49:32;;;;;;;1.95;1.40;;;25.30;51.90;;;;;;5044839;28;20048;-63
2021/04/01 12:52:01;;;;;;;3.75;1.48;;;25.40;51.00;;;;;;5051868;28;20036;-60
2021/04/01 12:54:36;;;;;;;1.92;1.35;;;25.20;50.00;;;;;;5064971;28;20573;-60
2021/04/01 12:57:04;;;;;;;1.48;1.15;;;25.30;50.70;;;;;;5054389;28;20026;-60
2021/04/01 12:59:34;;;;;;;1.75;1.33;;;25.50;51.60;;;;;;5064248;28;20111;-60
2021/04/01 13:02:11;;;;;;;1.02;0.93;;;25.70;50.80;;;;;;5065351;28;20071;-60
2021/04/01 13:04:41;;;;;;;1.30;0.95;;;26.00;49.80;;;;;;5048892;28;20033;-61
2021/04/01 13:09:48;;;;;;;2.00;1.30;;;25.80;50.80;;;;;;5054349;28;20043;-61
2021/04/01 13:12:18;;;;;;;1.80;1.30;;;26.10;49.40;;;;;;5064646;28;20025;-61
2021/04/01 13:14:45;;;;;;;1.75;1.05;;;25.70;49.40;;;;;;5045273;28;20021;-61
2021/04/01 13:17:12;;;;;;;1.20;1.10;;;26.00;50.80;;;;;;5044298;28;20529;-61
2021/04/01 13:19:40;;;;;;;3.60;1.17;;;26.00;49.70;;;;;;5049550;28;20053;-61
2021/04/01 13:27:03;;;;;;;1.55;1.08;;;26.10;48.90;;;;;;5047072;28;20082;-61
2021/04/01 13:29:33;;;;;;;1.25;0.90;;;26.00;49.30;;;;;;5046808;28;20113;-61
2021/04/01 13:32:03;;;;;;;1.10;1.00;;;26.20;48.40;;;;;;5059681;28;20078;-60
2021/04/01 13:34:36;;;;;;;1.10;0.82;;;26.10;48.70;;;;;;5061401;28;20022;-61
2021/04/01 13:37:16;;;;;;;0.82;0.70;;;26.30;49.00;;;;;;5084836;28;20476;-60
2021/04/01 13:39:47;;;;;;;0.88;0.80;;;26.50;49.60;;;;;;5083694;28;20469;-60
2021/04/01 13:44:44;;;;;;;0.93;0.70;;;26.70;48.60;;;;;;5084138;28;20085;-61
2021/04/01 13:47:11;;;;;;;1.50;1.10;;;27.20;49.30;;;;;;5073161;28;20528;-61
2021/04/01 13:49:38;;;;;;;2.17;1.10;;;27.00;48.00;;;;;;5043613;28;20052;-60
2021/04/01 13:52:28;;;;;;;1.00;0.85;;;26.70;48.40;;;;;;5054351;28;20025;-60
2021/04/01 13:55:14;;;;;;;1.40;0.80;;;27.00;48.20;;;;;;5044235;28;20024;-59
2021/04/01 14:11:08;;;;;;;1.30;0.90;;;26.80;47.00;;;;;;5055958;28;20518;-61
2021/04/01 14:13:36;;;;;;;0.98;0.60;;;26.90;47.00;;;;;;5044588;28;20028;-60
2021/04/01 14:16:03;;;;;;;0.73;0.68;;;27.40;48.80;;;;;;5059836;28;20105;-61
2021/04/01 14:18:32;;;;;;;1.88;1.10;;;27.50;47.30;;;;;;5064104;28;20162;-62
2021/04/01 14:21:01;;;;;;;1.30;1.02;;;27.70;46.60;;;;;;5045251;28;20031;-62
2021/04/01 14:23:30;;;;;;;5.65;1.55;;;27.40;46.60;;;;;;5043725;28;20044;-62
2021/04/01 14:25:59;;;;;;;3.35;1.08;;;27.10;46.60;;;;;;5043592;28;20021;-62
2021/04/01 14:28:26;;;;;;;1.27;1.00;;;27.10;46.90;;;;;;5051909;28;20117;-61
2021/04/01 14:30:52;;;;;;;1.17;0.95;;;27.30;47.40;;;;;;5057472;28;20029;-61
2021/04/01 14:33:21;;;;;;;0.85;0.85;;;27.10;47.20;;;;;;5047847;28;20029;-61
2021/04/01 14:35:47;;;;;;;1.30;0.95;;;27.40;46.90;;;;;;5046705;28;20600;-61
2021/04/01 14:38:15;;;;;;;1.38;0.80;;;27.30;45.80;;;;;;5052843;28;20047;-61
2021/04/01 14:41:02;;;;;;;1.00;0.90;;;27.60;45.30;;;;;;5063573;28;20556;-62
2021/04/01 14:45:57;;;;;;;1.65;0.93;;;27.50;46.20;;;;;;5042648;28;20032;-61
2021/04/01 14:48:23;;;;;;;1.83;1.30;;;27.30;46.40;;;;;;5043440;28;20039;-61
2021/04/01 14:50:50;;;;;;;1.65;1.10;;;27.00;45.70;;;;;;5045913;28;20348;-61
2021/04/01 14:53:26;;;;;;;2.28;1.10;;;27.20;46.50;;;;;;5046543;28;20024;-61
2021/04/01 14:55:52;;;;;;;1.40;1.30;;;27.50;45.70;;;;;;5043405;28;20267;-61
2021/04/01 14:58:19;;;;;;;0.77;0.70;;;27.60;45.40;;;;;;5044060;28;20362;-61
2021/04/01 15:00:46;;;;;;;2.42;0.90;;;27.70;45.40;;;;;;5045355;28;20056;-62
2021/04/01 15:03:13;;;;;;;2.90;1.00;;;27.80;46.10;;;;;;5055562;28;20044;-62